Terminal Aerodrome Forecast
Issued by NWS Indianapolis, IN

Home | Current Version | Previous Version | Text Only | Print | Product List | Glossary On
Versions: 1 2 3 4 5 6 7 8 9 10 11 12 13 14 15 16 17 18 19 20 21 22 23
000
FTUS43 KIND 021100
TAFIND
TAF
KIND 021121Z 0212/0318 15008KT P6SM BKN050 OVC100
      TEMPO 0213/0217 4SM -SHRA SCT025 OVC050
     FM021700 17010KT P6SM BKN050 BKN100
     FM022200 17009KT P6SM SCT050 SCT100 BKN250
     FM030700 17012KT 5SM -SHRA SCT025 OVC040
      TEMPO 0307/0311 2SM TSRA BKN025 OVC040CB=

USA.gov is the U.S. government's official web portal to all federal, state and local government web resources and services.